MUVR/VRA METAR and TAF weather

Enter ICAO airport designator
Station Type Date Time Source
MUVR METAR 2021/09/24 05:50 UTC NOAA

MUVR 240550Z VRB01KT 9000 FEW025 22/22 Q1014


Station Type Date Time Source
MUVR Decoded METAR 2021/09/24 05:50 UTC NOAA

Varadero, Matanzas, Cuba (MUVR) 23-08N 081-17W 3M
Sep 24, 2021 - 01:50 AM EDT / 2021.09.24 0550 UTC
Wind: Variable at 1 MPH (1 KT):0
Visibility: 5 mile(s):0
Sky conditions: mostly clear
Temperature: 71 F (22 C)
Dew Point: 71 F (22 C)
Relative Humidity: 100%
Pressure (altimeter): 29.94 in. Hg (1014 hPa)
ob: MUVR 240550Z VRB01KT 9000 FEW025 22/22 Q1014
cycle: 6

Station Type Date Time Source
MUVR TAF 2021/09/24 06:03 UTC NOAA

TAF MUVR 240500Z 2406/2506 VRB03KT 9000 SCT030

Example: see airport list